Terminal Aerodrome Forecast
Issued by NWS Sterling, VA

Current Version | Previous Version | Text Only | Print | Product List | Glossary Off
Versions: 1 2 3 4 5 6 7 8 9 10 11 12 13 14 15 16 17 18 19 20 21

000
FTUS41 KLWX 130500
TAFDCA
TAF
KDCA 130533Z 1306/1406 03006KT P6SM FEW050 SCT090 BKN150
     FM130800 04004KT P6SM SCT050 BKN090
     FM131500 12004KT 5SM -SHRA OVC050
     FM131700 01004KT 5SM -SHRA OVC025
     FM132100 33005KT P6SM OVC050=

USA.gov is the U.S. government's official web portal to all federal, state and local government web resources and services.